sensor_id;sensor_type;location;lat;lon;timestamp;pressure;altitude;pressure_sealevel;temperature;humidity
25130;BME280;13308;50.860;13.664;2023-07-13T05:19:24;96639.91;;;16.52;100.00
25130;BME280;13308;50.860;13.664;2023-07-13T05:21:49;96639.16;;;16.61;100.00
25130;BME280;13308;50.860;13.664;2023-07-13T05:24:15;96644.28;;;16.80;100.00
25130;BME280;13308;50.860;13.664;2023-07-13T05:26:40;96645.81;;;16.99;100.00
25130;BME280;13308;50.860;13.664;2023-07-13T05:29:05;96656.34;;;17.13;100.00
25130;BME280;13308;50.860;13.664;2023-07-13T05:31:31;96652.16;;;17.36;100.00
25130;BME280;13308;50.860;13.664;2023-07-13T05:33:56;96657.59;;;17.48;100.00
25130;BME280;13308;50.860;13.664;2023-07-13T05:36:21;96655.72;;;17.63;100.00
25130;BME280;13308;50.860;13.664;2023-07-13T05:38:47;96651.84;;;17.61;100.00
25130;BME280;13308;50.860;13.664;2023-07-13T05:41:12;96644.84;;;17.74;100.00
25130;BME280;13308;50.860;13.664;2023-07-13T05:43:37;96644.34;;;17.85;100.00
25130;BME280;13308;50.860;13.664;2023-07-13T05:46:03;96643.88;;;17.86;100.00
25130;BME280;13308;50.860;13.664;2023-07-13T05:48:28;96643.06;;;17.95;100.00
25130;BME280;13308;50.860;13.664;2023-07-13T05:50:53;96652.16;;;18.04;100.00
25130;BME280;13308;50.860;13.664;2023-07-13T05:53:19;96647.59;;;17.83;100.00
25130;BME280;13308;50.860;13.664;2023-07-13T05:55:45;96649.41;;;17.95;100.00
25130;BME280;13308;50.860;13.664;2023-07-13T05:58:18;96654.47;;;18.06;100.00
25130;BME280;13308;50.860;13.664;2023-07-13T06:00:44;96651.72;;;18.38;100.00
25130;BME280;13308;50.860;13.664;2023-07-13T06:03:09;96655.38;;;18.53;100.00
25130;BME280;13308;50.860;13.664;2023-07-13T06:05:38;96657.81;;;18.60;100.00
25130;BME280;13308;50.860;13.664;2023-07-13T06:08:04;96660.66;;;18.75;100.00
25130;BME280;13308;50.860;13.664;2023-07-13T06:10:33;96663.00;;;18.76;100.00
25130;BME280;13308;50.860;13.664;2023-07-13T06:12:58;96663.94;;;18.73;100.00
25130;BME280;13308;50.860;13.664;2023-07-13T06:15:23;96672.50;;;18.93;100.00
25130;BME280;13308;50.860;13.664;2023-07-13T06:17:49;96662.06;;;19.17;100.00
25130;BME280;13308;50.860;13.664;2023-07-13T06:20:14;96664.06;;;19.16;100.00
25130;BME280;13308;50.860;13.664;2023-07-13T06:22:39;96675.94;;;19.35;100.00
25130;BME280;13308;50.860;13.664;2023-07-13T06:25:05;96669.78;;;19.60;100.00
25130;BME280;13308;50.860;13.664;2023-07-13T06:27:30;96678.88;;;19.84;100.00
25130;BME280;13308;50.860;13.664;2023-07-13T06:29:56;96682.63;;;20.10;100.00
25130;BME280;13308;50.860;13.664;2023-07-13T06:32:21;96687.94;;;20.37;100.00
25130;BME280;13308;50.860;13.664;2023-07-13T06:34:46;96694.84;;;20.56;100.00
25130;BME280;13308;50.860;13.664;2023-07-13T06:37:12;96696.59;;;20.88;100.00
25130;BME280;13308;50.860;13.664;2023-07-13T06:39:37;96704.75;;;21.06;98.11
25130;BME280;13308;50.860;13.664;2023-07-13T06:42:03;96707.91;;;21.33;90.07
25130;BME280;13308;50.860;13.664;2023-07-13T06:44:28;96703.59;;;21.58;88.56
25130;BME280;13308;50.860;13.664;2023-07-13T06:46:53;96714.81;;;22.03;78.68
25130;BME280;13308;50.860;13.664;2023-07-13T06:49:19;96715.13;;;22.36;75.00
25130;BME280;13308;50.860;13.664;2023-07-13T06:51:44;96718.09;;;22.53;72.98
25130;BME280;13308;50.860;13.664;2023-07-13T06:54:09;96719.16;;;22.61;69.55
25130;BME280;13308;50.860;13.664;2023-07-13T06:56:35;96723.16;;;22.49;70.91
25130;BME280;13308;50.860;13.664;2023-07-13T06:59:00;96723.22;;;22.29;73.31
25130;BME280;13308;50.860;13.664;2023-07-13T07:01:25;96724.53;;;22.02;76.70
25130;BME280;13308;50.860;13.664;2023-07-13T07:03:51;96730.41;;;22.04;75.96
25130;BME280;13308;50.860;13.664;2023-07-13T07:06:19;96729.91;;;22.99;71.91
25130;BME280;13308;50.860;13.664;2023-07-13T07:08:45;96736.69;;;23.71;65.79
25130;BME280;13308;50.860;13.664;2023-07-13T07:11:13;96745.53;;;24.06;63.07
25130;BME280;13308;50.860;13.664;2023-07-13T07:13:38;96742.97;;;24.19;62.17
25130;BME280;13308;50.860;13.664;2023-07-13T07:16:04;96739.41;;;24.35;63.65
25130;BME280;13308;50.860;13.664;2023-07-13T07:18:29;96739.44;;;24.46;60.24
25130;BME280;13308;50.860;13.664;2023-07-13T07:20:54;96746.06;;;25.09;57.51
25130;BME280;13308;50.860;13.664;2023-07-13T07:23:20;96751.44;;;25.97;55.24
25130;BME280;13308;50.860;13.664;2023-07-13T07:25:45;96752.59;;;26.18;55.67
25130;BME280;13308;50.860;13.664;2023-07-13T07:28:12;96757.88;;;26.38;52.30
25130;BME280;13308;50.860;13.664;2023-07-13T07:30:41;96764.41;;;26.22;52.97
25130;BME280;13308;50.860;13.664;2023-07-13T07:33:07;96764.44;;;26.57;50.86
25130;BME280;13308;50.860;13.664;2023-07-13T07:35:33;96753.91;;;26.87;51.21
25130;BME280;13308;50.860;13.664;2023-07-13T07:37:58;96754.19;;;27.61;49.27
25130;BME280;13308;50.860;13.664;2023-07-13T07:40:23;96759.00;;;27.90;48.31
25130;BME280;13308;50.860;13.664;2023-07-13T07:42:49;96756.38;;;27.25;48.94
25130;BME280;13308;50.860;13.664;2023-07-13T07:45:14;96757.84;;;27.08;49.92
25130;BME280;13308;50.860;13.664;2023-07-13T07:47:40;96753.97;;;28.01;48.65
25130;BME280;13308;50.860;13.664;2023-07-13T07:50:05;96757.41;;;28.13;48.01
25130;BME280;13308;50.860;13.664;2023-07-13T07:52:31;96747.91;;;27.92;48.44
25130;BME280;13308;50.860;13.664;2023-07-13T07:54:56;96752.41;;;28.56;48.74
25130;BME280;13308;50.860;13.664;2023-07-13T07:57:22;96741.53;;;28.23;49.37
25130;BME280;13308;50.860;13.664;2023-07-13T07:59:47;96754.81;;;28.52;48.41
25130;BME280;13308;50.860;13.664;2023-07-13T08:02:13;96749.81;;;28.58;48.66
25130;BME280;13308;50.860;13.664;2023-07-13T08:04:38;96757.25;;;27.63;52.07
25130;BME280;13308;50.860;13.664;2023-07-13T08:07:04;96749.28;;;28.22;50.03
25130;BME280;13308;50.860;13.664;2023-07-13T08:09:30;96749.84;;;28.21;51.05
25130;BME280;13308;50.860;13.664;2023-07-13T08:11:55;96759.41;;;29.44;50.05
25130;BME280;13308;50.860;13.664;2023-07-13T08:14:20;96757.34;;;28.87;49.88
25130;BME280;13308;50.860;13.664;2023-07-13T08:16:46;96755.19;;;28.43;51.49
25130;BME280;13308;50.860;13.664;2023-07-13T08:19:11;96764.22;;;27.86;52.23
25130;BME280;13308;50.860;13.664;2023-07-13T08:21:37;96756.88;;;27.53;52.50
25130;BME280;13308;50.860;13.664;2023-07-13T08:24:02;96760.00;;;27.50;49.90
25130;BME280;13308;50.860;13.664;2023-07-13T08:26:28;96761.19;;;26.77;48.54
25130;BME280;13308;50.860;13.664;2023-07-13T08:28:53;96761.50;;;26.33;50.72
25130;BME280;13308;50.860;13.664;2023-07-13T08:31:19;96769.22;;;27.74;49.76
25130;BME280;13308;50.860;13.664;2023-07-13T08:33:44;96776.59;;;28.25;49.30
25130;BME280;13308;50.860;13.664;2023-07-13T08:36:09;96761.78;;;28.51;49.13
25130;BME280;13308;50.860;13.664;2023-07-13T08:38:35;96770.06;;;28.99;46.96
25130;BME280;13308;50.860;13.664;2023-07-13T08:41:10;96767.56;;;28.77;47.03
25130;BME280;13308;50.860;13.664;2023-07-13T08:43:36;96767.28;;;29.51;47.84
25130;BME280;13308;50.860;13.664;2023-07-13T08:46:13;96767.81;;;28.92;48.44
25130;BME280;13308;50.860;13.664;2023-07-13T08:48:47;96765.47;;;28.46;45.52
25130;BME280;13308;50.860;13.664;2023-07-13T08:51:21;96763.69;;;27.63;45.08
25130;BME280;13308;50.860;13.664;2023-07-13T08:53:52;96764.53;;;28.19;44.53
25130;BME280;13308;50.860;13.664;2023-07-13T08:56:24;96771.19;;;26.83;45.86
25130;BME280;13308;50.860;13.664;2023-07-13T08:58:54;96778.88;;;26.48;46.73
25130;BME280;13308;50.860;13.664;2023-07-13T09:01:39;96765.53;;;25.29;48.66
25130;BME280;13308;50.860;13.664;2023-07-13T09:04:22;96766.06;;;25.16;48.99
25130;BME280;13308;50.860;13.664;2023-07-13T09:07:04;96767.72;;;25.74;49.70
25130;BME280;13308;50.860;13.664;2023-07-13T09:09:50;96766.53;;;25.48;50.35
25130;BME280;13308;50.860;13.664;2023-07-13T09:12:45;96763.03;;;24.76;51.48
25130;BME280;13308;50.860;13.664;2023-07-13T09:15:43;96769.41;;;25.15;51.11
25130;BME280;13308;50.860;13.664;2023-07-13T09:18:27;96770.69;;;25.36;51.57
25130;BME280;13308;50.860;13.664;2023-07-13T09:21:17;96776.34;;;25.14;47.96
25130;BME280;13308;50.860;13.664;2023-07-13T09:23:47;96775.06;;;25.04;47.96
25130;BME280;13308;50.860;13.664;2023-07-13T09:26:18;96782.50;;;25.18;47.06
25130;BME280;13308;50.860;13.664;2023-07-13T09:28:46;96781.25;;;25.02;47.53
25130;BME280;13308;50.860;13.664;2023-07-13T09:31:19;96786.63;;;25.06;49.02
25130;BME280;13308;50.860;13.664;2023-07-13T09:33:46;96792.75;;;25.10;49.75
25130;BME280;13308;50.860;13.664;2023-07-13T09:36:24;96798.09;;;25.52;49.75
25130;BME280;13308;50.860;13.664;2023-07-13T09:38:59;96804.47;;;26.72;47.98
25130;BME280;13308;50.860;13.664;2023-07-13T09:44:15;96803.59;;;26.01;48.14
25130;BME280;13308;50.860;13.664;2023-07-13T09:46:45;96791.63;;;25.68;47.50
25130;BME280;13308;50.860;13.664;2023-07-13T09:49:11;96804.53;;;25.47;48.54
25130;BME280;13308;50.860;13.664;2023-07-13T09:51:41;96794.28;;;25.44;49.94
25130;BME280;13308;50.860;13.664;2023-07-13T09:54:17;96802.66;;;25.71;48.80
25130;BME280;13308;50.860;13.664;2023-07-13T09:56:43;96804.19;;;26.35;47.89
25130;BME280;13308;50.860;13.664;2023-07-13T09:59:21;96812.19;;;26.71;48.15
25130;BME280;13308;50.860;13.664;2023-07-13T10:01:47;96821.47;;;27.01;45.54
25130;BME280;13308;50.860;13.664;2023-07-13T10:04:17;96812.13;;;26.82;45.88
25130;BME280;13308;50.860;13.664;2023-07-13T10:06:44;96809.97;;;26.94;45.80
25130;BME280;13308;50.860;13.664;2023-07-13T10:09:10;96798.00;;;27.60;46.97
25130;BME280;13308;50.860;13.664;2023-07-13T10:11:39;96802.38;;;27.85;46.07
25130;BME280;13308;50.860;13.664;2023-07-13T10:14:17;96809.00;;;27.93;45.69
25130;BME280;13308;50.860;13.664;2023-07-13T10:16:45;96821.34;;;28.14;44.79
25130;BME280;13308;50.860;13.664;2023-07-13T10:19:19;96828.25;;;27.52;44.54
25130;BME280;13308;50.860;13.664;2023-07-13T10:22:02;96811.03;;;26.56;46.02
25130;BME280;13308;50.860;13.664;2023-07-13T10:24:32;96809.59;;;26.33;47.58
25130;BME280;13308;50.860;13.664;2023-07-13T10:29:36;96815.88;;;26.61;47.48
25130;BME280;13308;50.860;13.664;2023-07-13T10:32:09;96819.25;;;26.08;47.71
25130;BME280;13308;50.860;13.664;2023-07-13T10:34:35;96822.91;;;25.92;47.89
25130;BME280;13308;50.860;13.664;2023-07-13T10:37:01;96809.06;;;25.83;48.58
25130;BME280;13308;50.860;13.664;2023-07-13T10:39:28;96817.72;;;26.07;49.77
25130;BME280;13308;50.860;13.664;2023-07-13T10:42:00;96812.16;;;26.77;46.59
25130;BME280;13308;50.860;13.664;2023-07-13T10:44:31;96823.06;;;27.32;46.79
25130;BME280;13308;50.860;13.664;2023-07-13T10:47:02;96824.75;;;26.76;46.47
25130;BME280;13308;50.860;13.664;2023-07-13T10:49:31;96817.28;;;26.38;46.26
25130;BME280;13308;50.860;13.664;2023-07-13T10:51:57;96809.72;;;26.57;48.86
25130;BME280;13308;50.860;13.664;2023-07-13T10:54:33;96799.19;;;26.52;47.16
25130;BME280;13308;50.860;13.664;2023-07-13T10:57:19;96818.94;;;26.17;47.32
25130;BME280;13308;50.860;13.664;2023-07-13T11:02:29;96801.84;;;25.87;48.43
25130;BME280;13308;50.860;13.664;2023-07-13T11:04:56;96794.50;;;25.51;48.02
25130;BME280;13308;50.860;13.664;2023-07-13T11:07:28;96800.66;;;26.18;47.43
25130;BME280;13308;50.860;13.664;2023-07-13T11:09:59;96814.31;;;26.60;46.79
25130;BME280;13308;50.860;13.664;2023-07-13T11:12:28;96813.84;;;26.91;44.75
25130;BME280;13308;50.860;13.664;2023-07-13T11:15:13;96812.22;;;26.66;46.06
25130;BME280;13308;50.860;13.664;2023-07-13T11:17:53;96812.78;;;26.94;45.37
25130;BME280;13308;50.860;13.664;2023-07-13T11:20:34;96808.50;;;26.82;45.62
25130;BME280;13308;50.860;13.664;2023-07-13T11:25:37;96806.59;;;26.95;46.10
25130;BME280;13308;50.860;13.664;2023-07-13T11:28:17;96806.88;;;26.92;46.28
25130;BME280;13308;50.860;13.664;2023-07-13T11:31:00;96814.94;;;27.12;45.91
25130;BME280;13308;50.860;13.664;2023-07-13T11:33:51;96805.16;;;27.90;45.56
25130;BME280;13308;50.860;13.664;2023-07-13T11:36:19;96801.22;;;28.54;45.05
25130;BME280;13308;50.860;13.664;2023-07-13T11:39:16;96807.16;;;28.14;43.13
25130;BME280;13308;50.860;13.664;2023-07-13T11:42:02;96801.03;;;27.14;44.35
25130;BME280;13308;50.860;13.664;2023-07-13T11:44:30;96801.72;;;26.61;45.63
25130;BME280;13308;50.860;13.664;2023-07-13T11:46:58;96798.41;;;26.92;45.45
25130;BME280;13308;50.860;13.664;2023-07-13T11:49:26;96796.47;;;27.59;44.49
25130;BME280;13308;50.860;13.664;2023-07-13T11:51:52;96795.50;;;27.99;44.21
25130;BME280;13308;50.860;13.664;2023-07-13T11:54:25;96807.28;;;28.64;42.88
25130;BME280;13308;50.860;13.664;2023-07-13T11:56:52;96802.44;;;28.59;41.47
25130;BME280;13308;50.860;13.664;2023-07-13T11:59:18;96800.56;;;28.80;42.21
25130;BME280;13308;50.860;13.664;2023-07-13T12:01:47;96799.69;;;28.85;41.45
25130;BME280;13308;50.860;13.664;2023-07-13T12:04:25;96814.88;;;28.56;42.69
25130;BME280;13308;50.860;13.664;2023-07-13T12:07:04;96806.47;;;28.08;42.94
25130;BME280;13308;50.860;13.664;2023-07-13T12:09:29;96807.91;;;28.38;42.30
25130;BME280;13308;50.860;13.664;2023-07-13T12:11:57;96794.28;;;28.13;43.20
25130;BME280;13308;50.860;13.664;2023-07-13T12:14:25;96797.94;;;28.82;43.42
25130;BME280;13308;50.860;13.664;2023-07-13T12:16:52;96803.75;;;29.65;40.93
25130;BME280;13308;50.860;13.664;2023-07-13T12:19:21;96796.50;;;29.51;39.96
25130;BME280;13308;50.860;13.664;2023-07-13T12:21:47;96803.94;;;29.10;39.29
25130;BME280;13308;50.860;13.664;2023-07-13T12:24:18;96792.91;;;28.75;40.32
25130;BME280;13308;50.860;13.664;2023-07-13T12:26:44;96792.97;;;28.14;40.83
25130;BME280;13308;50.860;13.664;2023-07-13T12:29:16;96803.56;;;28.32;41.76
25130;BME280;13308;50.860;13.664;2023-07-13T12:31:44;96798.69;;;28.51;43.11
25130;BME280;13308;50.860;13.664;2023-07-13T12:34:15;96790.19;;;28.51;41.83
25130;BME280;13308;50.860;13.664;2023-07-13T12:36:47;96791.31;;;29.24;39.91
25130;BME280;13308;50.860;13.664;2023-07-13T12:39:24;96805.28;;;29.22;39.93
25130;BME280;13308;50.860;13.664;2023-07-13T12:41:52;96799.03;;;28.79;40.27
25130;BME280;13308;50.860;13.664;2023-07-13T12:44:24;96791.97;;;28.67;39.48
25130;BME280;13308;50.860;13.664;2023-07-13T12:46:57;96789.09;;;28.54;40.23
25130;BME280;13308;50.860;13.664;2023-07-13T12:49:26;96791.19;;;28.85;40.36
25130;BME280;13308;50.860;13.664;2023-07-13T12:51:57;96795.88;;;29.14;41.86
25130;BME280;13308;50.860;13.664;2023-07-13T12:54:24;96788.09;;;29.46;39.45
25130;BME280;13308;50.860;13.664;2023-07-13T12:56:50;96791.84;;;29.54;39.59
25130;BME280;13308;50.860;13.664;2023-07-13T12:59:22;96783.09;;;29.65;40.06
25130;BME280;13308;50.860;13.664;2023-07-13T13:01:49;96788.69;;;28.94;40.66
25130;BME280;13308;50.860;13.664;2023-07-13T13:04:15;96792.84;;;29.12;40.90
25130;BME280;13308;50.860;13.664;2023-07-13T13:06:41;96804.31;;;29.90;39.76
25130;BME280;13308;50.860;13.664;2023-07-13T13:09:16;96793.25;;;29.86;38.72
25130;BME280;13308;50.860;13.664;2023-07-13T13:11:43;96795.00;;;29.63;39.74
25130;BME280;13308;50.860;13.664;2023-07-13T13:14:08;96796.50;;;30.29;39.82
25130;BME280;13308;50.860;13.664;2023-07-13T13:16:39;96805.38;;;30.72;39.83
25130;BME280;13308;50.860;13.664;2023-07-13T13:19:17;96798.34;;;30.86;37.63
25130;BME280;13308;50.860;13.664;2023-07-13T13:21:44;96787.41;;;30.31;38.34
25130;BME280;13308;50.860;13.664;2023-07-13T13:24:12;96799.31;;;31.30;37.28
25130;BME280;13308;50.860;13.664;2023-07-13T13:26:38;96805.53;;;31.69;35.87
25130;BME280;13308;50.860;13.664;2023-07-13T13:29:16;96798.09;;;31.94;35.91
25130;BME280;13308;50.860;13.664;2023-07-13T13:31:43;96800.56;;;31.01;38.12
25130;BME280;13308;50.860;13.664;2023-07-13T13:34:11;96794.03;;;30.13;37.68
25130;BME280;13308;50.860;13.664;2023-07-13T13:36:37;96798.34;;;31.27;37.13
25130;BME280;13308;50.860;13.664;2023-07-13T13:39:02;96807.06;;;31.70;36.99
25130;BME280;13308;50.860;13.664;2023-07-13T13:41:29;96803.88;;;30.12;37.28
25130;BME280;13308;50.860;13.664;2023-07-13T13:43:56;96789.75;;;29.10;39.42
25130;BME280;13308;50.860;13.664;2023-07-13T13:46:24;96791.66;;;29.33;38.35
25130;BME280;13308;50.860;13.664;2023-07-13T13:48:55;96800.50;;;30.47;39.18
25130;BME280;13308;50.860;13.664;2023-07-13T13:51:23;96801.41;;;31.78;36.70
25130;BME280;13308;50.860;13.664;2023-07-13T13:53:49;96795.34;;;30.92;38.48
25130;BME280;13308;50.860;13.664;2023-07-13T13:56:17;96797.44;;;30.45;37.76
25130;BME280;13308;50.860;13.664;2023-07-13T13:58:43;96794.22;;;31.15;36.08
25130;BME280;13308;50.860;13.664;2023-07-13T14:01:13;96797.00;;;31.49;36.44
25130;BME280;13308;50.860;13.664;2023-07-13T14:03:41;96794.97;;;30.95;35.42
25130;BME280;13308;50.860;13.664;2023-07-13T14:06:12;96793.78;;;30.70;35.71
25130;BME280;13308;50.860;13.664;2023-07-13T14:08:38;96790.31;;;30.51;36.67
25130;BME280;13308;50.860;13.664;2023-07-13T14:11:03;96795.44;;;29.80;37.65
25130;BME280;13308;50.860;13.664;2023-07-13T14:13:34;96783.06;;;28.76;39.16
25130;BME280;13308;50.860;13.664;2023-07-13T14:16:01;96787.03;;;28.86;38.86
25130;BME280;13308;50.860;13.664;2023-07-13T14:18:27;96787.19;;;29.51;38.73
25130;BME280;13308;50.860;13.664;2023-07-13T14:20:52;96787.75;;;30.01;39.03
25130;BME280;13308;50.860;13.664;2023-07-13T14:23:18;96794.75;;;30.39;37.19
25130;BME280;13308;50.860;13.664;2023-07-13T14:25:45;96795.88;;;30.57;37.02
25130;BME280;13308;50.860;13.664;2023-07-13T14:28:21;96789.78;;;30.40;38.09
25130;BME280;13308;50.860;13.664;2023-07-13T14:30:47;96799.50;;;30.91;35.84
25130;BME280;13308;50.860;13.664;2023-07-13T14:33:13;96796.25;;;31.48;35.56
25130;BME280;13308;50.860;13.664;2023-07-13T14:35:38;96805.53;;;31.69;35.25
25130;BME280;13308;50.860;13.664;2023-07-13T14:38:05;96800.69;;;31.16;36.14
25130;BME280;13308;50.860;13.664;2023-07-13T14:40:33;96788.69;;;30.43;36.92
25130;BME280;13308;50.860;13.664;2023-07-13T14:42:59;96793.63;;;28.94;38.33
25130;BME280;13308;50.860;13.664;2023-07-13T14:45:25;96787.41;;;28.27;39.74
25130;BME280;13308;50.860;13.664;2023-07-13T14:47:51;96782.47;;;28.64;40.51
25130;BME280;13308;50.860;13.664;2023-07-13T14:50:31;96780.84;;;29.45;39.46
25130;BME280;13308;50.860;13.664;2023-07-13T14:52:57;96783.09;;;29.78;37.91
25130;BME280;13308;50.860;13.664;2023-07-13T14:55:23;96774.66;;;29.85;37.99
25130;BME280;13308;50.860;13.664;2023-07-13T14:57:51;96799.50;;;30.24;37.93
25130;BME280;13308;50.860;13.664;2023-07-13T15:00:21;96787.81;;;30.35;36.47
25130;BME280;13308;50.860;13.664;2023-07-13T15:02:53;96781.94;;;29.42;37.43
25130;BME280;13308;50.860;13.664;2023-07-13T15:05:31;96790.31;;;29.66;39.34
25130;BME280;13308;50.860;13.664;2023-07-13T15:07:58;96780.34;;;29.98;38.11
25130;BME280;13308;50.860;13.664;2023-07-13T15:10:27;96784.72;;;29.99;37.56
25130;BME280;13308;50.860;13.664;2023-07-13T15:13:01;96791.19;;;30.00;37.22
25130;BME280;13308;50.860;13.664;2023-07-13T15:15:38;96794.91;;;29.95;36.97
25130;BME280;13308;50.860;13.664;2023-07-13T15:18:05;96803.19;;;29.93;37.51
25130;BME280;13308;50.860;13.664;2023-07-13T15:20:33;96799.84;;;30.41;36.84
25130;BME280;13308;50.860;13.664;2023-07-13T15:23:00;96794.06;;;30.80;36.30
25130;BME280;13308;50.860;13.664;2023-07-13T15:25:28;96805.75;;;31.10;35.26
25130;BME280;13308;50.860;13.664;2023-07-13T15:27:56;96802.72;;;30.87;35.83
25130;BME280;13308;50.860;13.664;2023-07-13T15:30:22;96808.88;;;30.99;36.00
25130;BME280;13308;50.860;13.664;2023-07-13T15:32:48;96790.50;;;30.07;35.99
25130;BME280;13308;50.860;13.664;2023-07-13T15:35:19;96797.06;;;30.02;37.02
25130;BME280;13308;50.860;13.664;2023-07-13T15:37:44;96790.28;;;29.92;36.21
25130;BME280;13308;50.860;13.664;2023-07-13T15:40:11;96788.19;;;28.96;37.11
25130;BME280;13308;50.860;13.664;2023-07-13T15:42:37;96787.47;;;28.58;37.73
25130;BME280;13308;50.860;13.664;2023-07-13T15:45:04;96780.94;;;28.63;38.43
25130;BME280;13308;50.860;13.664;2023-07-13T15:47:31;96794.59;;;28.65;37.49
25130;BME280;13308;50.860;13.664;2023-07-13T15:49:57;96787.00;;;29.04;37.46
25130;BME280;13308;50.860;13.664;2023-07-13T15:52:23;96791.25;;;28.48;37.36
25130;BME280;13308;50.860;13.664;2023-07-13T15:54:49;96789.25;;;28.93;37.75
25130;BME280;13308;50.860;13.664;2023-07-13T15:57:16;96793.66;;;28.20;38.67
25130;BME280;13308;50.860;13.664;2023-07-13T15:59:42;96791.72;;;27.67;38.57
25130;BME280;13308;50.860;13.664;2023-07-13T16:02:17;96796.41;;;27.11;39.29
25130;BME280;13308;50.860;13.664;2023-07-13T16:04:43;96785.47;;;26.96;39.54
25130;BME280;13308;50.860;13.664;2023-07-13T16:07:10;96783.22;;;27.19;39.27
25130;BME280;13308;50.860;13.664;2023-07-13T16:09:36;96788.34;;;27.50;38.25
25130;BME280;13308;50.860;13.664;2023-07-13T16:12:09;96792.31;;;26.82;39.33
25130;BME280;13308;50.860;13.664;2023-07-13T16:14:35;96794.97;;;26.99;39.42
25130;BME280;13308;50.860;13.664;2023-07-13T16:17:01;96788.69;;;27.41;40.24
25130;BME280;13308;50.860;13.664;2023-07-13T16:19:26;96795.22;;;27.01;40.17
25130;BME280;13308;50.860;13.664;2023-07-13T16:21:54;96799.19;;;27.22;39.23
25130;BME280;13308;50.860;13.664;2023-07-13T16:24:22;96792.28;;;27.41;38.92
25130;BME280;13308;50.860;13.664;2023-07-13T16:26:50;96803.47;;;27.82;38.66
25130;BME280;13308;50.860;13.664;2023-07-13T16:29:19;96813.84;;;28.16;37.23
25130;BME280;13308;50.860;13.664;2023-07-13T16:32:05;96807.91;;;27.96;37.21
25130;BME280;13308;50.860;13.664;2023-07-13T16:34:34;96814.19;;;27.89;37.68
25130;BME280;13308;50.860;13.664;2023-07-13T16:37:22;96817.81;;;27.41;38.89
25130;BME280;13308;50.860;13.664;2023-07-13T16:39:54;96812.63;;;26.81;38.45
25130;BME280;13308;50.860;13.664;2023-07-13T16:42:24;96817.25;;;26.43;40.13
25130;BME280;13308;50.860;13.664;2023-07-13T16:44:50;96819.44;;;26.67;40.55
25130;BME280;13308;50.860;13.664;2023-07-13T16:47:17;96825.81;;;27.08;39.06
25130;BME280;13308;50.860;13.664;2023-07-13T16:49:43;96819.00;;;27.22;39.14
25130;BME280;13308;50.860;13.664;2023-07-13T16:52:15;96821.25;;;27.77;38.46
25130;BME280;13308;50.860;13.664;2023-07-13T16:54:45;96821.66;;;27.92;38.44
25130;BME280;13308;50.860;13.664;2023-07-13T16:57:25;96831.72;;;28.30;37.26
25130;BME280;13308;50.860;13.664;2023-07-13T16:59:54;96832.50;;;28.49;37.88
25130;BME280;13308;50.860;13.664;2023-07-13T17:02:30;96822.94;;;27.91;38.27
25130;BME280;13308;50.860;13.664;2023-07-13T17:04:56;96834.03;;;27.41;37.94
25130;BME280;13308;50.860;13.664;2023-07-13T17:07:21;96832.28;;;26.68;38.40
25130;BME280;13308;50.860;13.664;2023-07-13T17:09:47;96829.34;;;26.44;39.46
25130;BME280;13308;50.860;13.664;2023-07-13T17:12:12;96839.38;;;26.45;39.36
25130;BME280;13308;50.860;13.664;2023-07-13T17:14:38;96838.44;;;26.20;39.53
25130;BME280;13308;50.860;13.664;2023-07-13T17:17:14;96838.34;;;25.80;40.53
25130;BME280;13308;50.860;13.664;2023-07-13T17:19:39;96841.28;;;25.41;40.61
25130;BME280;13308;50.860;13.664;2023-07-13T17:22:10;96841.28;;;25.36;41.36
25130;BME280;13308;50.860;13.664;2023-07-13T17:24:44;96839.72;;;25.46;41.13
25130;BME280;13308;50.860;13.664;2023-07-13T17:27:11;96848.16;;;25.57;40.28
25130;BME280;13308;50.860;13.664;2023-07-13T17:29:36;96841.28;;;25.36;40.83
25130;BME280;13308;50.860;13.664;2023-07-13T17:32:05;96838.97;;;25.18;40.84
25130;BME280;13308;50.860;13.664;2023-07-13T17:34:31;96841.28;;;25.03;41.70
25130;BME280;13308;50.860;13.664;2023-07-13T17:36:57;96836.41;;;24.87;41.61
25130;BME280;13308;50.860;13.664;2023-07-13T17:39:24;96847.94;;;24.67;42.41
25130;BME280;13308;50.860;13.664;2023-07-13T17:41:51;96843.00;;;24.51;43.11
25130;BME280;13308;50.860;13.664;2023-07-13T17:44:17;96839.13;;;24.26;44.39
25130;BME280;13308;50.860;13.664;2023-07-13T17:46:45;96841.44;;;24.33;44.40
25130;BME280;13308;50.860;13.664;2023-07-13T17:49:19;96849.38;;;24.35;44.56
25130;BME280;13308;50.860;13.664;2023-07-13T17:51:48;96844.25;;;24.39;44.43
25130;BME280;13308;50.860;13.664;2023-07-13T17:54:16;96843.94;;;24.15;45.59
25130;BME280;13308;50.860;13.664;2023-07-13T17:56:41;96842.44;;;24.25;44.48
25130;BME280;13308;50.860;13.664;2023-07-13T17:59:07;96850.13;;;24.30;44.83
25130;BME280;13308;50.860;13.664;2023-07-13T18:01:32;96840.38;;;24.20;45.03
25130;BME280;13308;50.860;13.664;2023-07-13T18:03:58;96843.38;;;24.00;45.35
25130;BME280;13308;50.860;13.664;2023-07-13T18:08:54;96858.69;;;23.88;44.84
25130;BME280;13308;50.860;13.664;2023-07-13T18:11:20;96851.13;;;23.68;45.62
25130;BME280;13308;50.860;13.664;2023-07-13T18:13:46;96853.59;;;23.50;46.51
25130;BME280;13308;50.860;13.664;2023-07-13T18:16:16;96856.03;;;23.31;47.51
25130;BME280;13308;50.860;13.664;2023-07-13T18:18:43;96858.50;;;23.18;47.05
25130;BME280;13308;50.860;13.664;2023-07-13T18:21:10;96857.94;;;23.14;47.81
